Time;durP1;ratioP1;P1;durP2;ratioP2;P2;SDS_P1;SDS_P2;PMS_P1;PMS_P2;Temp;Humidity;BMP_temperature;BMP_pressure;BME280_temperature;BME280_humidity;BME280_pressure;Samples;Min_cycle;Max_cycle;Signal;HPM_P1;HPM_P2
2021/07/27 00:00:37;;;;;;;19.80;5.40;;;;;;;18.32;100.00;97503.72;5105901;28;20099;-88
2021/07/27 00:03:05;;;;;;;22.02;5.35;;;;;;;18.46;100.00;97515.69;5101393;28;20047;-87
2021/07/27 00:05:33;;;;;;;16.70;5.78;;;;;;;18.46;100.00;97512.16;5081157;28;20047;-88
2021/07/27 00:08:17;;;;;;;21.08;5.15;;;;;;;18.48;100.00;97509.88;5081991;28;20054;-86
2021/07/27 00:10:44;;;;;;;14.48;4.97;;;;;;;18.49;100.00;97516.94;5083379;28;20047;-87
2021/07/27 00:13:11;;;;;;;17.75;4.88;;;;;;;18.43;100.00;97510.94;5098687;28;20054;-87
2021/07/27 00:15:37;;;;;;;12.43;4.40;;;;;;;18.52;100.00;97513.47;5078262;28;20047;-86
2021/07/27 00:18:07;;;;;;;15.02;4.82;;;;;;;18.42;100.00;97509.38;5114810;28;20412;-86
2021/07/27 00:20:34;;;;;;;22.02;5.13;;;;;;;18.35;100.00;97520.22;5116526;28;20046;-86
2021/07/27 00:23:01;;;;;;;23.90;5.72;;;;;;;18.27;100.00;97517.75;5098803;28;20120;-86
2021/07/27 00:25:27;;;;;;;14.93;4.82;;;;;;;18.21;100.00;97519.22;5099969;28;20115;-86
2021/07/27 00:27:54;;;;;;;16.13;4.93;;;;;;;18.17;100.00;97515.63;5081454;28;20047;-86
2021/07/27 00:30:21;;;;;;;19.73;5.50;;;;;;;18.16;100.00;97514.84;5099261;28;20043;-86
2021/07/27 00:32:48;;;;;;;16.75;5.13;;;;;;;18.19;100.00;97521.53;5081902;28;20097;-86
2021/07/27 00:35:16;;;;;;;17.80;5.07;;;;;;;18.19;100.00;97532.50;5080976;28;20053;-86
2021/07/27 00:37:44;;;;;;;15.95;5.13;;;;;;;18.15;100.00;97518.72;5081295;28;20100;-85
2021/07/27 00:40:13;;;;;;;23.50;5.30;;;;;;;18.12;100.00;97530.41;5098939;28;20472;-85
2021/07/27 00:42:47;;;;;;;15.32;5.18;;;;;;;17.98;100.00;97539.19;5079983;28;20052;-85
2021/07/27 00:45:15;;;;;;;16.90;5.30;;;;;;;17.86;100.00;97541.34;5081236;28;20067;-86
2021/07/27 00:47:43;;;;;;;21.73;5.50;;;;;;;17.78;100.00;97528.66;5098306;28;20054;-86
2021/07/27 00:50:11;;;;;;;20.23;5.00;;;;;;;17.64;100.00;97533.88;5080443;28;20100;-85
2021/07/27 00:52:38;;;;;;;21.20;5.90;;;;;;;17.52;100.00;97532.06;5078856;28;20055;-87
2021/07/27 00:55:05;;;;;;;34.88;5.95;;;;;;;17.43;100.00;97532.28;5095528;28;20079;-86
2021/07/27 00:57:32;;;;;;;26.98;5.82;;;;;;;17.38;100.00;97529.84;5079643;28;20047;-85
2021/07/27 00:59:59;;;;;;;22.02;6.43;;;;;;;17.31;100.00;97535.19;5097081;28;20062;-86
2021/07/27 01:02:27;;;;;;;28.20;6.22;;;;;;;17.22;100.00;97534.59;5113800;28;20142;-86
2021/07/27 01:04:53;;;;;;;37.75;6.43;;;;;;;16.99;100.00;97531.00;5094902;28;20051;-87
2021/07/27 01:07:21;;;;;;;29.42;6.47;;;;;;;16.99;100.00;97541.13;5094265;28;20126;-87
2021/07/27 01:09:50;;;;;;;25.02;6.32;;;;;;;16.92;100.00;97535.50;5095162;28;20096;-87
2021/07/27 01:12:17;;;;;;;24.42;6.97;;;;;;;16.90;100.00;97541.34;5080332;28;20044;-86
2021/07/27 01:14:43;;;;;;;21.52;5.97;;;;;;;16.87;100.00;97527.59;5077687;28;20070;-86
2021/07/27 01:17:10;;;;;;;19.05;5.88;;;;;;;16.90;100.00;97529.63;5078762;28;20051;-87
2021/07/27 01:20:33;;;;;;;25.63;5.75;;;;;;;16.92;100.00;97530.03;5078207;28;20040;-85
2021/07/27 01:44:03;;;;;;;19.55;5.10;;;;;;;16.80;100.00;97522.78;5101718;28;20086;-87
2021/07/27 01:46:34;;;;;;;13.15;5.15;;;;;;;16.70;100.00;97518.66;5088098;28;20051;-86
2021/07/27 01:49:01;;;;;;;11.10;5.18;;;;;;;16.61;100.00;97522.72;5082092;28;20055;-86
2021/07/27 01:51:31;;;;;;;9.20;5.65;;;;;;;16.54;100.00;97531.53;5082192;28;20044;-86
2021/07/27 01:54:02;;;;;;;21.35;5.50;;;;;;;16.51;100.00;97529.53;5098346;28;20040;-88
2021/07/27 01:56:30;;;;;;;16.60;6.20;;;;;;;16.38;100.00;97516.31;5117270;28;20097;-88
2021/07/27 01:58:57;;;;;;;30.80;6.85;;;;;;;16.34;100.00;97526.34;5098791;28;20154;-87
2021/07/27 02:01:26;;;;;;;22.92;6.32;;;;;;;16.26;100.00;97522.66;5098575;28;20043;-86
2021/07/27 02:03:55;;;;;;;20.27;6.85;;;;;;;16.27;100.00;97523.47;5081864;28;20073;-87
2021/07/27 02:06:22;;;;;;;14.30;6.45;;;;;;;16.11;100.00;97524.25;5122323;28;20040;-84
2021/07/27 02:08:49;;;;;;;19.40;7.15;;;;;;;16.01;100.00;97522.06;5107512;28;20046;-86
2021/07/27 02:11:19;;;;;;;26.10;6.93;;;;;;;16.04;100.00;97528.75;5111215;28;20047;-85
2021/07/27 02:13:50;;;;;;;20.50;8.30;;;;;;;16.01;100.00;97535.72;5137007;28;20064;-84
2021/07/27 02:16:17;;;;;;;24.00;8.52;;;;;;;16.03;100.00;97543.56;5102520;28;20044;-85
2021/07/27 02:18:44;;;;;;;36.80;8.98;;;;;;;15.96;100.00;97543.38;5131275;28;20047;-85
2021/07/27 02:21:11;;;;;;;22.88;8.80;;;;;;;15.90;100.00;97534.66;5080569;28;20485;-87
2021/07/27 02:23:38;;;;;;;25.70;8.93;;;;;;;15.91;100.00;97549.91;5098296;28;20055;-86
2021/07/27 02:26:04;;;;;;;26.45;9.23;;;;;;;15.81;100.00;97555.09;5087213;28;20031;-84
2021/07/27 02:28:31;;;;;;;27.10;9.32;;;;;;;15.81;100.00;97555.88;5102966;28;20047;-85
2021/07/27 02:31:00;;;;;;;20.65;8.27;;;;;;;15.91;100.00;97555.38;5096846;28;20044;-85
2021/07/27 02:33:29;;;;;;;20.52;7.82;;;;;;;15.91;100.00;97551.84;5115585;28;20050;-84
2021/07/27 02:35:56;;;;;;;22.42;8.35;;;;;;;15.84;100.00;97549.72;5098257;28;20044;-84
2021/07/27 02:38:23;;;;;;;19.25;8.23;;;;;;;15.85;100.00;97559.47;5115917;28;20237;-84
2021/07/27 02:40:50;;;;;;;20.27;6.75;;;;;;;15.77;100.00;97554.22;5114798;28;20477;-85
2021/07/27 02:43:16;;;;;;;16.42;7.13;;;;;;;15.77;100.00;97541.34;5116912;28;20074;-85
2021/07/27 02:45:43;;;;;;;14.75;6.55;;;;;;;15.83;100.00;97541.88;5081120;28;20039;-85
2021/07/27 02:48:09;;;;;;;14.60;6.10;;;;;;;15.87;100.00;97540.81;5081277;28;20052;-85
2021/07/27 02:50:36;;;;;;;17.63;7.03;;;;;;;15.94;100.00;97542.94;5080255;28;20055;-85
2021/07/27 02:53:02;;;;;;;17.13;7.32;;;;;;;15.91;100.00;97536.25;5080606;28;20051;-85
2021/07/27 02:55:29;;;;;;;21.38;8.13;;;;;;;15.87;100.00;97550.97;5096998;28;20058;-86
2021/07/27 02:58:00;;;;;;;23.95;7.95;;;;;;;15.80;100.00;97546.09;5095018;28;20043;-84
2021/07/27 03:00:27;;;;;;;19.40;8.70;;;;;;;15.77;100.00;97540.56;5132983;28;20031;-84
2021/07/27 03:02:55;;;;;;;24.45;8.85;;;;;;;15.86;100.00;97547.44;5115796;28;20035;-84
2021/07/27 03:05:22;;;;;;;25.05;9.27;;;;;;;15.91;100.00;97551.84;5080852;28;20051;-84
2021/07/27 03:07:50;;;;;;;20.90;9.10;;;;;;;15.90;100.00;97555.69;5079947;28;20043;-84
2021/07/27 03:10:21;;;;;;;19.50;9.20;;;;;;;15.89;100.00;97554.13;5079479;28;20491;-84
2021/07/27 03:12:53;;;;;;;21.90;9.23;;;;;;;15.86;100.00;97550.16;5080476;28;20054;-84
2021/07/27 03:15:25;;;;;;;20.92;8.90;;;;;;;15.82;100.00;97560.19;5078932;28;20050;-84
2021/07/27 03:17:57;;;;;;;20.73;9.70;;;;;;;15.84;100.00;97557.91;5096053;28;20039;-85
2021/07/27 03:20:25;;;;;;;18.80;9.60;;;;;;;15.82;100.00;97560.19;5114145;28;20089;-85
2021/07/27 03:22:55;;;;;;;17.20;9.32;;;;;;;15.81;100.00;97560.53;5096644;28;20086;-85
2021/07/27 03:25:23;;;;;;;18.67;8.05;;;;;;;15.84;100.00;97568.03;5081052;28;20044;-85
2021/07/27 03:27:52;;;;;;;23.30;8.75;;;;;;;15.77;100.00;97552.25;5080406;28;20604;-84
2021/07/27 03:30:21;;;;;;;17.30;7.85;;;;;;;15.76;100.00;97547.16;5097960;28;20463;-86
2021/07/27 03:32:49;;;;;;;15.65;8.30;;;;;;;15.69;100.00;97549.72;5097795;28;20047;-85
2021/07/27 03:35:20;;;;;;;19.50;8.45;;;;;;;15.67;100.00;97549.25;5098527;28;20046;-87
2021/07/27 03:37:46;;;;;;;19.52;7.70;;;;;;;15.64;100.00;97547.22;5086738;27;20062;-86
2021/07/27 03:40:14;;;;;;;20.30;8.35;;;;;;;15.58;100.00;97543.97;5106740;28;20624;-85
2021/07/27 03:42:42;;;;;;;17.27;8.35;;;;;;;15.57;100.00;97550.56;5105877;27;20070;-86
2021/07/27 03:45:09;;;;;;;23.73;8.30;;;;;;;15.52;100.00;97564.44;5113444;28;20054;-84
2021/07/27 03:47:38;;;;;;;25.35;7.72;;;;;;;15.47;100.00;97561.97;5102334;28;20462;-84
2021/07/27 03:50:07;;;;;;;24.08;8.38;;;;;;;15.43;100.00;97561.06;5095903;28;20107;-84
2021/07/27 03:52:34;;;;;;;23.30;9.20;;;;;;;15.37;100.00;97563.25;5079597;28;20047;-83
2021/07/27 03:55:00;;;;;;;21.00;8.52;;;;;;;15.39;100.00;97573.78;5095651;28;20096;-83
2021/07/27 03:57:27;;;;;;;27.92;8.70;;;;;;;15.36;100.00;97572.56;5096892;28;20535;-83
2021/07/27 03:59:55;;;;;;;26.23;8.80;;;;;;;15.35;100.00;97570.97;5079415;28;20138;-83
2021/07/27 04:02:23;;;;;;;23.50;9.60;;;;;;;15.35;100.00;97592.81;5095729;28;20409;-79
2021/07/27 04:04:50;;;;;;;27.90;9.88;;;;;;;15.39;100.00;97588.22;5078257;28;20064;-79
2021/07/27 04:07:17;;;;;;;17.10;9.80;;;;;;;15.48;100.00;97583.47;5095310;28;20534;-80
2021/07/27 04:09:44;;;;;;;26.52;9.65;;;;;;;15.55;100.00;97588.31;5094386;28;20043;-80
2021/07/27 04:12:11;;;;;;;19.92;9.30;;;;;;;15.46;100.00;97598.56;5094459;28;20127;-80
2021/07/27 04:14:37;;;;;;;20.65;8.95;;;;;;;15.52;100.00;97587.06;5112142;27;20169;-80
2021/07/27 04:17:04;;;;;;;30.92;9.77;;;;;;;15.57;100.00;97595.00;5112621;28;20055;-79
2021/07/27 04:19:31;;;;;;;25.33;8.57;;;;;;;15.62;100.00;97604.06;5112591;28;20055;-79
2021/07/27 04:21:57;;;;;;;21.15;8.77;;;;;;;15.60;100.00;97604.44;5094172;28;20047;-79
2021/07/27 04:24:27;;;;;;;18.42;8.10;;;;;;;15.62;100.00;97610.34;5093572;28;20082;-79
2021/07/27 04:26:54;;;;;;;21.30;9.73;;;;;;;15.66;100.00;97608.50;5093956;28;20455;-80
2021/07/27 04:29:20;;;;;;;20.92;9.15;;;;;;;15.66;100.00;97611.25;5113934;28;20508;-78
2021/07/27 04:31:51;;;;;;;19.50;8.95;;;;;;;15.71;100.00;97611.00;5094733;28;20046;-79
2021/07/27 04:34:21;;;;;;;25.73;8.75;;;;;;;15.73;100.00;97607.91;5077789;28;20039;-79
2021/07/27 04:36:51;;;;;;;22.50;8.95;;;;;;;15.81;100.00;97607.75;5105040;27;20126;-80
2021/07/27 04:39:18;;;;;;;18.90;8.32;;;;;;;15.82;100.00;97594.91;5117514;27;20039;-79
2021/07/27 04:41:45;;;;;;;19.75;8.60;;;;;;;15.94;100.00;97613.94;5118143;28;20050;-80
2021/07/27 04:44:11;;;;;;;18.95;8.50;;;;;;;15.96;100.00;97606.19;5120983;27;20054;-79
2021/07/27 04:46:38;;;;;;;17.17;8.20;;;;;;;15.99;100.00;97605.47;5139985;27;20043;-80
2021/07/27 04:49:05;;;;;;;26.15;8.68;;;;;;;16.05;100.00;97595.91;5118956;28;20050;-79
2021/07/27 04:51:31;;;;;;;20.25;8.38;;;;;;;16.13;100.00;97603.91;5131749;27;20035;-80
2021/07/27 04:54:01;;;;;;;20.20;8.25;;;;;;;16.17;100.00;97598.53;5123802;28;20060;-81
2021/07/27 04:56:31;;;;;;;18.30;7.80;;;;;;;16.30;100.00;97601.97;5128551;28;20047;-79
2021/07/27 04:58:58;;;;;;;13.57;7.25;;;;;;;16.36;100.00;97593.19;5107481;28;20066;-84
2021/07/27 05:01:24;;;;;;;10.27;6.32;;;;;;;16.54;100.00;97597.13;5117528;23;20052;-80
2021/07/27 05:03:51;;;;;;;10.30;5.90;;;;;;;16.91;100.00;97588.59;5095913;28;20036;-80
2021/07/27 05:06:18;;;;;;;15.07;5.50;;;;;;;17.20;100.00;97588.88;5101555;28;20043;-82
2021/07/27 05:08:44;;;;;;;11.05;5.03;;;;;;;17.30;100.00;97582.03;5081401;28;20054;-79
2021/07/27 05:11:13;;;;;;;13.40;5.38;;;;;;;17.47;100.00;97581.63;5098320;28;20043;-80
2021/07/27 05:13:40;;;;;;;13.18;5.20;;;;;;;17.78;100.00;97588.91;5114325;28;20404;-79
2021/07/27 05:16:07;;;;;;;16.55;5.18;;;;;;;18.00;100.00;97588.13;5097289;28;20043;-79
2021/07/27 05:18:33;;;;;;;9.43;4.32;;;;;;;18.21;100.00;97580.28;5096836;28;20054;-80
2021/07/27 05:21:00;;;;;;;14.18;4.97;;;;;;;18.33;100.00;97580.09;5114789;28;20354;-79
2021/07/27 05:23:30;;;;;;;9.00;4.53;;;;;;;18.45;100.00;97588.13;5096682;28;20520;-79
2021/07/27 05:25:59;;;;;;;10.30;4.80;;;;;;;18.48;100.00;97581.94;5096929;28;20040;-79
2021/07/27 05:28:27;;;;;;;7.43;4.80;;;;;;;18.63;100.00;97585.72;5097220;28;20039;-80
2021/07/27 05:30:56;;;;;;;12.20;4.82;;;;;;;18.64;100.00;97582.59;5081404;28;20047;-79
2021/07/27 05:33:23;;;;;;;10.85;4.80;;;;;;;18.80;100.00;97590.66;5080341;28;20142;-79
2021/07/27 05:35:50;;;;;;;6.40;4.55;;;;;;;18.89;100.00;97582.94;5096714;28;20723;-80
2021/07/27 05:38:17;;;;;;;6.95;4.28;;;;;;;19.02;100.00;97583.53;5080086;28;20110;-79
2021/07/27 05:40:51;;;;;;;11.13;5.05;;;;;;;19.10;100.00;97587.94;5116487;28;20043;-79
2021/07/27 05:43:19;;;;;;;7.95;4.53;;;;;;;19.12;100.00;97577.41;5126337;28;20069;-81
2021/07/27 05:45:45;;;;;;;8.43;4.38;;;;;;;19.17;100.00;97585.31;5101112;28;20210;-80
2021/07/27 05:48:12;;;;;;;11.07;4.70;;;;;;;19.28;100.00;97597.22;5100049;28;20047;-80
2021/07/27 05:50:39;;;;;;;9.60;4.63;;;;;;;19.37;100.00;97591.44;5098607;28;20054;-79
2021/07/27 05:53:06;;;;;;;6.45;4.53;;;;;;;19.41;100.00;97589.59;5098193;28;20047;-79
2021/07/27 05:55:35;;;;;;;8.55;4.70;;;;;;;19.42;100.00;97594.69;5080073;28;20044;-80
2021/07/27 05:58:02;;;;;;;6.40;4.47;;;;;;;19.51;100.00;97599.91;5116162;28;20047;-78
2021/07/27 06:00:28;;;;;;;7.95;4.75;;;;;;;19.50;100.00;97593.63;5096248;28;20047;-80
2021/07/27 06:02:55;;;;;;;10.55;4.70;;;;;;;19.63;100.00;97596.91;5096314;28;20050;-77
2021/07/27 06:05:22;;;;;;;10.18;4.80;;;;;;;19.68;100.00;97600.13;5114262;28;20036;-80
2021/07/27 06:07:49;;;;;;;9.68;5.07;;;;;;;19.77;100.00;97597.84;5096947;28;20050;-78
2021/07/27 06:10:15;;;;;;;8.23;4.35;;;;;;;19.78;100.00;97595.91;5114991;28;20043;-78
2021/07/27 06:12:44;;;;;;;7.82;4.25;;;;;;;19.85;100.00;97594.00;5116825;28;20031;-79
2021/07/27 06:15:11;;;;;;;8.25;4.38;;;;;;;19.95;100.00;97597.25;5119236;28;20065;-80
2021/07/27 06:17:37;;;;;;;7.78;4.63;;;;;;;20.04;100.00;97595.00;5100175;28;20043;-79
2021/07/27 06:20:17;;;;;;;8.60;4.15;;;;;;;20.13;100.00;97584.50;5081168;28;20043;-82
2021/07/27 06:22:46;;;;;;;8.05;4.40;;;;;;;20.18;100.00;97595.16;5115956;28;20051;-79
2021/07/27 06:25:13;;;;;;;6.28;4.13;;;;;;;20.23;100.00;97587.38;5115250;28;20055;-79
2021/07/27 06:27:42;;;;;;;6.60;3.90;;;;;;;20.34;100.00;97584.69;5096333;28;20047;-78
2021/07/27 06:30:12;;;;;;;8.57;3.53;;;;;;;20.45;100.00;97596.59;5079514;28;20176;-80
2021/07/27 06:32:39;;;;;;;7.43;3.78;;;;;;;20.37;100.00;97590.25;5100069;28;20040;-78
2021/07/27 06:35:16;;;;;;;6.05;3.72;;;;;;;20.45;100.00;97593.84;5088707;28;20047;-79
2021/07/27 06:37:56;;;;;;;5.78;4.28;;;;;;;20.47;100.00;97594.25;5076860;28;20343;-78
2021/07/27 06:40:23;;;;;;;6.43;3.72;;;;;;;20.51;100.00;97592.31;5115561;28;20040;-79
2021/07/27 06:42:49;;;;;;;7.05;4.03;;;;;;;20.66;100.00;97590.47;5096903;28;20062;-79
2021/07/27 06:45:16;;;;;;;10.40;4.00;;;;;;;20.61;100.00;97588.88;5096865;28;20484;-79
2021/07/27 06:47:43;;;;;;;6.07;3.83;;;;;;;20.71;100.00;97592.84;5079863;28;20051;-80
2021/07/27 06:50:13;;;;;;;7.57;4.05;;;;;;;20.80;100.00;97596.84;5096709;28;20045;-80
2021/07/27 06:52:41;;;;;;;7.45;3.75;;;;;;;20.89;100.00;97585.53;5114497;28;20170;-80
2021/07/27 06:55:08;;;;;;;7.80;3.88;;;;;;;20.99;100.00;97598.56;5114443;28;20043;-80
2021/07/27 06:57:41;;;;;;;5.43;3.83;;;;;;;20.96;100.00;97591.06;5114371;28;20048;-83
2021/07/27 07:00:13;;;;;;;8.15;3.65;;;;;;;21.01;100.00;97602.50;5094337;28;20052;-80
2021/07/27 07:02:49;;;;;;;7.90;3.80;;;;;;;21.03;100.00;97593.88;5078821;28;20043;-83
2021/07/27 07:05:16;;;;;;;;;;;;;;;21.12;100.00;97608.09;5095750;28;20051;-82
2021/07/27 07:07:45;;;;;;;6.32;3.70;;;;;;;21.19;100.00;97608.16;5080508;28;19920;-81
2021/07/27 07:10:14;;;;;;;8.07;3.80;;;;;;;21.26;100.00;97601.91;5118031;28;20047;-80
2021/07/27 07:12:41;;;;;;;9.07;3.88;;;;;;;21.39;100.00;97605.91;5099156;28;20218;-79
2021/07/27 07:15:08;;;;;;;6.63;4.00;;;;;;;21.42;100.00;97603.16;5116454;28;20047;-80
2021/07/27 07:17:34;;;;;;;5.97;3.40;;;;;;;21.48;100.00;97603.56;5115177;28;20046;-80
2021/07/27 07:20:02;;;;;;;6.40;3.70;;;;;;;21.63;100.00;97596.94;5119004;28;20055;-80
2021/07/27 07:22:30;;;;;;;4.72;3.58;;;;;;;21.72;100.00;97592.66;5102363;28;20044;-79
2021/07/27 07:25:14;;;;;;;5.88;3.83;;;;;;;21.81;100.00;97599.78;5118393;28;20059;-81
2021/07/27 07:27:41;;;;;;;7.45;3.88;;;;;;;21.80;100.00;97600.94;5103294;28;20069;-80
2021/07/27 07:30:08;;;;;;;5.18;3.50;;;;;;;21.96;100.00;97604.97;5104321;28;20043;-80
2021/07/27 07:32:34;;;;;;;9.85;4.00;;;;;;;22.09;100.00;97599.88;5104443;28;20492;-81
2021/07/27 07:35:04;;;;;;;7.40;3.67;;;;;;;22.18;100.00;97603.03;5105279;28;20057;-80
2021/07/27 07:37:30;;;;;;;8.30;3.75;;;;;;;22.22;100.00;97590.81;5126263;28;20096;-80
2021/07/27 07:39:57;;;;;;;6.90;3.42;;;;;;;22.16;100.00;97595.16;5125053;28;20039;-79
2021/07/27 07:42:23;;;;;;;7.82;3.55;;;;;;;22.14;100.00;97600.25;5123067;28;20040;-81
2021/07/27 07:44:52;;;;;;;6.57;4.00;;;;;;;22.20;100.00;97598.72;5101555;28;20043;-82
2021/07/27 07:47:19;;;;;;;5.90;3.90;;;;;;;22.15;100.00;97610.13;5116997;28;20039;-81
2021/07/27 07:49:45;;;;;;;8.23;4.10;;;;;;;22.17;100.00;97595.97;5095894;28;20051;-81
2021/07/27 07:52:16;;;;;;;6.53;3.90;;;;;;;22.27;100.00;97593.19;5095614;28;20051;-80
2021/07/27 07:54:42;;;;;;;7.07;4.20;;;;;;;22.56;100.00;97594.00;5113940;28;20049;-80
2021/07/27 07:57:09;;;;;;;8.00;3.50;;;;;;;22.76;100.00;97594.44;5095722;28;20047;-79
2021/07/27 07:59:36;;;;;;;5.35;3.60;;;;;;;22.76;100.00;97597.22;5078357;28;20047;-79
2021/07/27 08:02:05;;;;;;;8.48;3.53;;;;;;;22.73;100.00;97600.75;5106145;27;20042;-81
2021/07/27 08:04:32;;;;;;;6.13;3.80;;;;;;;22.81;100.00;97610.59;5097808;28;20079;-79
2021/07/27 08:06:58;;;;;;;6.97;3.75;;;;;;;22.95;100.00;97607.81;5096055;28;20428;-81
2021/07/27 08:09:31;;;;;;;8.88;3.75;;;;;;;22.91;100.00;97588.50;5078850;28;20053;-82
2021/07/27 08:11:58;;;;;;;4.75;3.38;;;;;;;23.39;100.00;97594.34;5094971;28;20508;-79
2021/07/27 08:14:26;;;;;;;9.40;3.80;;;;;;;23.46;100.00;97607.34;5124092;28;20516;-80
2021/07/27 08:16:52;;;;;;;5.90;3.47;;;;;;;23.11;100.00;97605.44;5099307;28;20047;-81
2021/07/27 08:19:19;;;;;;;9.40;3.60;;;;;;;23.30;100.00;97612.50;5115505;28;20044;-79
2021/07/27 08:21:46;;;;;;;7.65;3.40;;;;;;;23.47;100.00;97612.47;5096190;28;20044;-82
2021/07/27 08:24:13;;;;;;;4.43;3.30;;;;;;;23.47;100.00;97606.16;5113118;28;20043;-81
2021/07/27 08:26:39;;;;;;;10.00;3.80;;;;;;;23.61;100.00;97613.59;5098862;28;20081;-79
2021/07/27 08:29:06;;;;;;;4.47;3.28;;;;;;;23.39;100.00;97610.91;5130198;28;20123;-81
2021/07/27 08:31:35;;;;;;;6.13;3.35;;;;;;;23.30;100.00;97607.75;5108757;28;20039;-81
2021/07/27 08:34:17;;;;;;;7.03;3.67;;;;;;;23.59;100.00;97607.69;5128417;28;20048;-80
2021/07/27 08:36:47;;;;;;;6.50;3.45;;;;;;;23.15;100.00;97608.97;5130672;27;20050;-79
2021/07/27 08:39:24;;;;;;;4.95;3.30;;;;;;;23.84;100.00;97602.84;5128924;28;20039;-80
2021/07/27 08:42:03;;;;;;;10.32;3.63;;;;;;;23.99;100.00;97605.13;5112942;28;20039;-80
2021/07/27 08:44:39;;;;;;;6.45;4.10;;;;;;;23.66;100.00;97614.00;5131752;28;20043;-81
2021/07/27 08:47:09;;;;;;;7.03;3.60;;;;;;;23.28;100.00;97614.88;5112721;28;20057;-80
2021/07/27 08:49:40;;;;;;;11.10;3.47;;;;;;;23.20;100.00;97616.84;5110756;28;20111;-82
2021/07/27 08:52:25;;;;;;;6.13;3.30;;;;;;;22.89;100.00;97609.41;5129406;28;20088;-81
2021/07/27 08:54:51;;;;;;;7.28;3.50;;;;;;;22.80;100.00;97609.81;5084378;28;20458;-82
2021/07/27 08:57:28;;;;;;;7.97;3.78;;;;;;;22.80;100.00;97592.47;5117569;28;20069;-83
2021/07/27 09:00:10;;;;;;;4.20;3.45;;;;;;;22.99;100.00;97602.31;5115074;28;20046;-85
2021/07/27 09:02:38;;;;;;;4.75;3.45;;;;;;;23.31;100.00;97603.78;5097031;28;20044;-82
2021/07/27 09:05:13;;;;;;;5.45;3.70;;;;;;;23.79;100.00;97603.25;5115606;28;20063;-83
2021/07/27 09:07:43;;;;;;;7.40;3.25;;;;;;;23.91;100.00;97600.03;5095263;28;20047;-81
2021/07/27 09:10:25;;;;;;;9.20;3.55;;;;;;;24.33;100.00;97599.81;5095288;28;20035;-81
2021/07/27 09:12:54;;;;;;;7.07;3.65;;;;;;;24.56;100.00;97602.81;5113514;28;20082;-83
2021/07/27 09:15:23;;;;;;;7.68;3.40;;;;;;;24.77;100.00;97593.53;5077752;28;20243;-81
2021/07/27 09:18:01;;;;;;;8.10;3.55;;;;;;;24.82;100.00;97603.41;5079761;28;20496;-81
2021/07/27 09:20:39;;;;;;;5.18;2.97;;;;;;;25.14;100.00;97606.66;5097247;28;20043;-81
2021/07/27 09:23:28;;;;;;;6.03;3.50;;;;;;;25.13;100.00;97600.34;5113859;28;20070;-84
2021/07/27 09:26:12;;;;;;;8.70;3.35;;;;;;;24.77;100.00;97596.31;5052726;28;20052;-82
2021/07/27 09:28:42;;;;;;;8.13;3.50;;;;;;;25.04;100.00;97608.34;5069370;28;20048;-83
2021/07/27 09:31:08;;;;;;;6.63;2.88;;;;;;;25.07;100.00;97601.97;5068853;28;20065;-79
2021/07/27 09:33:35;;;;;;;6.35;3.35;;;;;;;24.92;100.00;97599.75;5069116;28;20044;-84
2021/07/27 09:36:05;;;;;;;6.25;3.58;;;;;;;24.86;100.00;97593.88;5071942;28;20087;-82
2021/07/27 09:38:32;;;;;;;4.45;3.15;;;;;;;25.60;100.00;97589.56;5057160;28;20059;-80
2021/07/27 09:41:04;;;;;;;4.43;2.97;;;;;;;26.08;100.00;97590.09;5070711;28;20049;-81
2021/07/27 09:43:50;;;;;;;7.03;3.50;;;;;;;26.04;100.00;97591.38;5037579;28;20045;-82
2021/07/27 09:46:34;;;;;;;7.15;3.50;;;;;;;26.06;100.00;97598.06;5069286;28;20128;-81
2021/07/27 09:49:01;;;;;;;7.03;3.30;;;;;;;26.81;100.00;97593.00;5059758;28;20059;-78
2021/07/27 09:51:32;;;;;;;6.10;3.05;;;;;;;26.64;100.00;97585.69;5075863;28;20072;-81
2021/07/27 09:54:00;;;;;;;5.15;3.10;;;;;;;27.55;100.00;97583.28;5073672;28;20055;-80
2021/07/27 09:56:52;;;;;;;4.85;3.20;;;;;;;28.17;88.22;97590.72;5091750;28;20051;-81
2021/07/27 09:59:20;;;;;;;6.50;3.10;;;;;;;28.41;83.42;97583.81;5121685;28;20092;-79
2021/07/27 10:01:53;;;;;;;9.10;3.10;;;;;;;28.44;81.04;97584.94;5097246;28;20043;-79
2021/07/27 10:04:31;;;;;;;5.45;3.30;;;;;;;29.28;67.20;97582.03;5097289;28;20047;-79
2021/07/27 10:07:02;;;;;;;4.35;3.13;;;;;;;29.06;76.94;97569.88;5081563;28;20500;-80
2021/07/27 10:09:34;;;;;;;3.78;2.63;;;;;;;29.28;73.36;97582.03;5120308;28;20048;-80
2021/07/27 10:12:12;;;;;;;6.45;3.03;;;;;;;29.25;68.90;97574.56;5119797;28;20067;-81
2021/07/27 10:14:47;;;;;;;4.38;3.20;;;;;;;29.15;65.55;97578.38;5114970;28;20249;-78
2021/07/27 10:17:28;;;;;;;5.82;3.17;;;;;;;27.90;67.13;97572.63;5096134;28;20062;-82
2021/07/27 10:19:58;;;;;;;;;;;;;;;27.84;81.26;97586.28;5096764;28;20617;-78
2021/07/27 10:22:31;;;;;;;5.38;3.25;;;;;;;27.66;83.41;97581.09;5099099;28;19920;-79
2021/07/27 10:24:58;;;;;;;9.70;3.00;;;;;;;26.77;100.00;97569.25;5096778;28;20043;-79
2021/07/27 10:27:25;;;;;;;8.45;3.03;;;;;;;26.32;100.00;97569.56;5114585;28;20386;-77
2021/07/27 10:30:13;;;;;;;8.52;3.10;;;;;;;25.90;100.00;97570.94;5096394;28;20043;-78
2021/07/27 10:32:52;;;;;;;10.30;3.50;;;;;;;25.68;99.58;97586.25;5107129;27;20215;-80
2021/07/27 10:35:33;;;;;;;10.57;3.13;;;;;;;25.75;100.00;97585.41;5098835;28;20106;-79
2021/07/27 10:38:16;;;;;;;4.53;3.20;;;;;;;25.80;100.00;97576.63;5115943;28;20074;-84
2021/07/27 10:40:54;;;;;;;5.85;3.30;;;;;;;25.69;100.00;97587.84;5106191;28;20057;-79
2021/07/27 10:43:25;;;;;;;7.22;3.10;;;;;;;25.42;100.00;97584.19;5099992;28;20039;-83
2021/07/27 10:46:02;;;;;;;6.45;3.10;;;;;;;25.26;100.00;97578.44;5097863;28;20050;-80
2021/07/27 10:48:54;;;;;;;5.93;2.97;;;;;;;26.12;100.00;97584.50;5114529;28;20040;-82
2021/07/27 10:51:23;;;;;;;6.53;3.33;;;;;;;27.03;92.62;97573.94;5095898;28;20040;-80
2021/07/27 10:53:51;;;;;;;6.60;3.00;;;;;;;27.03;80.66;97574.72;5096129;28;20469;-81
2021/07/27 10:56:27;;;;;;;7.53;3.13;;;;;;;27.93;69.81;97583.69;5079636;28;20043;-81
2021/07/27 10:58:55;;;;;;;5.28;2.70;;;;;;;28.90;64.05;97562.31;5097300;28;20124;-80
2021/07/27 11:01:31;;;;;;;6.20;3.33;;;;;;;29.53;55.99;97568.19;5113314;28;20047;-79
2021/07/27 11:04:09;;;;;;;5.60;2.90;;;;;;;29.57;57.66;97568.09;5097422;28;20045;-81
2021/07/27 11:06:46;;;;;;;4.80;2.88;;;;;;;27.99;64.12;97564.47;5097972;28;20091;-84
2021/07/27 11:09:15;;;;;;;5.32;3.10;;;;;;;27.93;68.38;97564.19;5097378;28;20120;-78
2021/07/27 11:11:47;;;;;;;6.47;3.20;;;;;;;27.44;68.77;97565.22;5096706;28;20385;-81
2021/07/27 11:16:48;;;;;;;4.50;3.17;;;;;;;26.41;73.62;97564.25;4985920;28;20106;-85
2021/07/27 11:19:24;;;;;;;9.45;3.17;;;;;;;25.83;84.95;97559.16;4985589;28;20073;-81
2021/07/27 11:21:52;;;;;;;6.15;3.03;;;;;;;25.65;93.57;97569.69;4954769;28;20047;-85
2021/07/27 11:24:19;;;;;;;6.75;3.20;;;;;;;25.35;100.00;97571.19;4987047;28;20079;-86
2021/07/27 11:26:50;;;;;;;8.70;3.10;;;;;;;25.23;100.00;97563.41;5004959;28;20047;-81
2021/07/27 11:29:18;;;;;;;6.00;2.95;;;;;;;25.35;100.00;97562.09;5002724;28;20069;-82
2021/07/27 11:31:50;;;;;;;5.70;3.00;;;;;;;25.25;100.00;97574.88;4987400;28;20073;-80
2021/07/27 11:34:31;;;;;;;6.90;3.00;;;;;;;25.40;100.00;97581.03;5004755;28;20046;-82
2021/07/27 11:36:58;;;;;;;5.82;3.22;;;;;;;25.59;100.00;97587.97;5001363;28;20053;-82
2021/07/27 11:39:26;;;;;;;4.20;3.15;;;;;;;25.55;100.00;97582.47;5000642;28;20042;-84
2021/07/27 11:42:02;;;;;;;4.35;2.97;;;;;;;25.41;100.00;97571.53;5000514;28;20286;-83
2021/07/27 11:44:29;;;;;;;10.45;3.47;;;;;;;25.57;100.00;97574.53;5003179;28;20060;-83
2021/07/27 11:46:56;;;;;;;9.52;3.25;;;;;;;25.96;100.00;97585.88;5002043;28;20050;-81
2021/07/27 11:49:25;;;;;;;7.10;3.20;;;;;;;26.19;100.00;97579.66;5001966;28;20519;-82
2021/07/27 11:52:05;;;;;;;8.75;3.33;;;;;;;26.20;95.01;97563.78;5001572;28;20053;-84
2021/07/27 11:54:32;;;;;;;5.32;3.33;;;;;;;26.87;99.77;97574.63;4999713;28;20053;-84
2021/07/27 11:57:00;;;;;;;6.15;3.63;;;;;;;26.68;88.88;97572.53;4998536;28;20049;-83